sensor_id;sensor_type;location;lat;lon;timestamp;P1;durP1;ratioP1;P2;durP2;ratioP2
23728;SDS011;12045;60.214;24.724;2023-02-15T00:00:04;2.37;;;1.10;;
23728;SDS011;12045;60.214;24.724;2023-02-15T00:02:52;5.27;;;1.30;;
23728;SDS011;12045;60.214;24.724;2023-02-15T00:05:20;1.20;;;0.80;;
23728;SDS011;12045;60.214;24.724;2023-02-15T00:07:47;1.27;;;1.17;;
23728;SDS011;12045;60.214;24.724;2023-02-15T00:10:15;1.20;;;1.10;;
23728;SDS011;12045;60.214;24.724;2023-02-15T00:12:43;4.23;;;1.37;;
23728;SDS011;12045;60.214;24.724;2023-02-15T00:15:11;1.30;;;0.90;;
23728;SDS011;12045;60.214;24.724;2023-02-15T00:17:40;2.23;;;1.23;;
23728;SDS011;12045;60.214;24.724;2023-02-15T00:20:07;0.63;;;0.63;;
23728;SDS011;12045;60.214;24.724;2023-02-15T00:22:35;2.17;;;1.00;;
23728;SDS011;12045;60.214;24.724;2023-02-15T00:25:02;1.57;;;1.40;;
23728;SDS011;12045;60.214;24.724;2023-02-15T00:27:30;1.13;;;0.60;;
23728;SDS011;12045;60.214;24.724;2023-02-15T00:29:58;1.07;;;0.70;;
23728;SDS011;12045;60.214;24.724;2023-02-15T00:32:25;3.33;;;0.90;;
23728;SDS011;12045;60.214;24.724;2023-02-15T00:34:52;2.10;;;1.20;;
23728;SDS011;12045;60.214;24.724;2023-02-15T00:37:20;0.73;;;0.70;;
23728;SDS011;12045;60.214;24.724;2023-02-15T00:39:47;2.83;;;1.03;;
23728;SDS011;12045;60.214;24.724;2023-02-15T00:42:15;0.77;;;0.77;;
23728;SDS011;12045;60.214;24.724;2023-02-15T00:44:42;0.70;;;0.70;;
23728;SDS011;12045;60.214;24.724;2023-02-15T00:47:09;1.00;;;0.93;;
23728;SDS011;12045;60.214;24.724;2023-02-15T00:49:37;4.00;;;1.20;;
23728;SDS011;12045;60.214;24.724;2023-02-15T00:52:04;1.27;;;1.23;;
23728;SDS011;12045;60.214;24.724;2023-02-15T00:54:31;2.23;;;1.30;;
23728;SDS011;12045;60.214;24.724;2023-02-15T00:57:01;3.73;;;1.93;;
23728;SDS011;12045;60.214;24.724;2023-02-15T00:59:28;6.10;;;0.77;;
23728;SDS011;12045;60.214;24.724;2023-02-15T01:01:56;2.17;;;1.33;;
23728;SDS011;12045;60.214;24.724;2023-02-15T01:04:23;6.63;;;1.93;;
23728;SDS011;12045;60.214;24.724;2023-02-15T01:06:50;2.43;;;1.17;;
23728;SDS011;12045;60.214;24.724;2023-02-15T01:09:18;0.83;;;0.70;;
23728;SDS011;12045;60.214;24.724;2023-02-15T01:11:46;2.33;;;1.10;;
23728;SDS011;12045;60.214;24.724;2023-02-15T01:14:13;2.67;;;1.10;;
23728;SDS011;12045;60.214;24.724;2023-02-15T01:16:41;3.70;;;1.57;;
23728;SDS011;12045;60.214;24.724;2023-02-15T01:19:08;3.27;;;1.20;;
23728;SDS011;12045;60.214;24.724;2023-02-15T01:21:39;3.50;;;1.53;;
23728;SDS011;12045;60.214;24.724;2023-02-15T01:24:11;1.53;;;1.00;;
23728;SDS011;12045;60.214;24.724;2023-02-15T01:26:39;1.97;;;1.30;;
23728;SDS011;12045;60.214;24.724;2023-02-15T01:29:07;2.80;;;1.80;;
23728;SDS011;12045;60.214;24.724;2023-02-15T01:31:34;1.20;;;1.00;;
23728;SDS011;12045;60.214;24.724;2023-02-15T01:34:02;3.43;;;1.73;;
23728;SDS011;12045;60.214;24.724;2023-02-15T01:36:29;1.97;;;1.50;;
23728;SDS011;12045;60.214;24.724;2023-02-15T01:38:58;4.73;;;1.63;;
23728;SDS011;12045;60.214;24.724;2023-02-15T01:41:25;1.87;;;1.20;;
23728;SDS011;12045;60.214;24.724;2023-02-15T01:44:01;3.20;;;1.90;;
23728;SDS011;12045;60.214;24.724;2023-02-15T01:46:40;2.63;;;1.50;;
23728;SDS011;12045;60.214;24.724;2023-02-15T01:49:16;4.87;;;1.57;;
23728;SDS011;12045;60.214;24.724;2023-02-15T01:51:47;3.03;;;1.80;;
23728;SDS011;12045;60.214;24.724;2023-02-15T01:56:53;8.93;;;2.97;;
23728;SDS011;12045;60.214;24.724;2023-02-15T01:59:25;7.00;;;2.73;;
23728;SDS011;12045;60.214;24.724;2023-02-15T02:01:53;8.07;;;3.07;;
23728;SDS011;12045;60.214;24.724;2023-02-15T02:04:26;9.27;;;2.90;;
23728;SDS011;12045;60.214;24.724;2023-02-15T02:07:00;7.00;;;2.73;;
23728;SDS011;12045;60.214;24.724;2023-02-15T02:09:29;7.57;;;3.00;;
23728;SDS011;12045;60.214;24.724;2023-02-15T02:11:57;5.50;;;3.07;;
23728;SDS011;12045;60.214;24.724;2023-02-15T02:14:24;4.97;;;2.50;;
23728;SDS011;12045;60.214;24.724;2023-02-15T02:17:06;7.43;;;3.23;;
23728;SDS011;12045;60.214;24.724;2023-02-15T02:31:43;4.90;;;2.80;;
23728;SDS011;12045;60.214;24.724;2023-02-15T02:34:32;9.47;;;3.03;;
23728;SDS011;12045;60.214;24.724;2023-02-15T02:40:16;6.80;;;3.43;;
23728;SDS011;12045;60.214;24.724;2023-02-15T02:42:49;6.10;;;3.00;;
23728;SDS011;12045;60.214;24.724;2023-02-15T02:49:02;14.37;;;3.30;;
23728;SDS011;12045;60.214;24.724;2023-02-15T02:51:29;9.03;;;3.40;;
23728;SDS011;12045;60.214;24.724;2023-02-15T02:53:58;6.70;;;3.50;;
23728;SDS011;12045;60.214;24.724;2023-02-15T02:59:13;6.93;;;3.30;;
23728;SDS011;12045;60.214;24.724;2023-02-15T03:01:52;7.87;;;3.60;;
23728;SDS011;12045;60.214;24.724;2023-02-15T03:04:36;6.83;;;3.23;;
23728;SDS011;12045;60.214;24.724;2023-02-15T03:07:26;6.63;;;3.10;;
23728;SDS011;12045;60.214;24.724;2023-02-15T03:09:56;6.93;;;3.40;;
23728;SDS011;12045;60.214;24.724;2023-02-15T03:12:29;6.57;;;3.80;;
23728;SDS011;12045;60.214;24.724;2023-02-15T03:15:42;8.73;;;3.17;;
23728;SDS011;12045;60.214;24.724;2023-02-15T03:17:54;9.47;;;3.53;;
23728;SDS011;12045;60.214;24.724;2023-02-15T03:20:30;7.50;;;3.83;;
23728;SDS011;12045;60.214;24.724;2023-02-15T03:23:04;6.53;;;3.37;;
23728;SDS011;12045;60.214;24.724;2023-02-15T03:25:41;9.10;;;3.50;;
23728;SDS011;12045;60.214;24.724;2023-02-15T03:28:13;6.90;;;3.27;;
23728;SDS011;12045;60.214;24.724;2023-02-15T03:30:47;6.60;;;3.63;;
23728;SDS011;12045;60.214;24.724;2023-02-15T03:33:18;9.83;;;3.63;;
23728;SDS011;12045;60.214;24.724;2023-02-15T03:35:49;10.27;;;3.80;;
23728;SDS011;12045;60.214;24.724;2023-02-15T03:38:35;8.60;;;3.83;;
23728;SDS011;12045;60.214;24.724;2023-02-15T03:41:27;7.93;;;3.50;;
23728;SDS011;12045;60.214;24.724;2023-02-15T03:44:04;6.57;;;3.30;;
23728;SDS011;12045;60.214;24.724;2023-02-15T03:49:17;6.73;;;3.37;;
23728;SDS011;12045;60.214;24.724;2023-02-15T03:51:51;5.33;;;3.33;;
23728;SDS011;12045;60.214;24.724;2023-02-15T03:54:24;8.60;;;4.07;;
23728;SDS011;12045;60.214;24.724;2023-02-15T03:57:14;7.07;;;3.90;;
23728;SDS011;12045;60.214;24.724;2023-02-15T04:00:02;7.67;;;3.87;;
23728;SDS011;12045;60.214;24.724;2023-02-15T04:03:08;6.70;;;3.47;;
23728;SDS011;12045;60.214;24.724;2023-02-15T04:05:43;6.70;;;3.67;;
23728;SDS011;12045;60.214;24.724;2023-02-15T04:08:12;5.43;;;3.60;;
23728;SDS011;12045;60.214;24.724;2023-02-15T04:10:39;8.50;;;3.80;;
23728;SDS011;12045;60.214;24.724;2023-02-15T04:13:20;5.80;;;3.40;;
23728;SDS011;12045;60.214;24.724;2023-02-15T04:15:49;7.00;;;3.37;;
23728;SDS011;12045;60.214;24.724;2023-02-15T04:18:35;8.77;;;3.70;;
23728;SDS011;12045;60.214;24.724;2023-02-15T04:21:27;6.53;;;3.10;;
23728;SDS011;12045;60.214;24.724;2023-02-15T04:24:14;6.40;;;3.33;;
23728;SDS011;12045;60.214;24.724;2023-02-15T04:27:01;6.57;;;3.40;;
23728;SDS011;12045;60.214;24.724;2023-02-15T04:29:29;9.43;;;3.67;;
23728;SDS011;12045;60.214;24.724;2023-02-15T04:31:59;19.03;;;4.13;;
23728;SDS011;12045;60.214;24.724;2023-02-15T04:34:27;18.73;;;3.83;;
23728;SDS011;12045;60.214;24.724;2023-02-15T04:36:55;19.23;;;4.53;;
23728;SDS011;12045;60.214;24.724;2023-02-15T04:39:22;18.17;;;3.63;;
23728;SDS011;12045;60.214;24.724;2023-02-15T04:41:50;23.50;;;4.47;;
23728;SDS011;12045;60.214;24.724;2023-02-15T04:44:17;14.40;;;3.67;;
23728;SDS011;12045;60.214;24.724;2023-02-15T04:46:45;23.97;;;4.23;;
23728;SDS011;12045;60.214;24.724;2023-02-15T04:49:12;17.50;;;3.57;;
23728;SDS011;12045;60.214;24.724;2023-02-15T04:51:39;31.63;;;4.87;;
23728;SDS011;12045;60.214;24.724;2023-02-15T04:54:07;13.23;;;4.27;;
23728;SDS011;12045;60.214;24.724;2023-02-15T04:56:34;45.97;;;5.43;;
23728;SDS011;12045;60.214;24.724;2023-02-15T04:59:04;11.83;;;4.17;;
23728;SDS011;12045;60.214;24.724;2023-02-15T05:01:31;10.90;;;4.00;;
23728;SDS011;12045;60.214;24.724;2023-02-15T05:03:59;9.20;;;4.00;;
23728;SDS011;12045;60.214;24.724;2023-02-15T05:06:26;7.17;;;3.50;;
23728;SDS011;12045;60.214;24.724;2023-02-15T05:08:54;9.83;;;4.40;;
23728;SDS011;12045;60.214;24.724;2023-02-15T05:11:21;7.70;;;3.93;;
23728;SDS011;12045;60.214;24.724;2023-02-15T05:13:49;7.27;;;3.87;;
23728;SDS011;12045;60.214;24.724;2023-02-15T05:16:16;8.20;;;4.00;;
23728;SDS011;12045;60.214;24.724;2023-02-15T05:18:44;9.13;;;3.83;;
23728;SDS011;12045;60.214;24.724;2023-02-15T05:21:11;7.47;;;3.80;;
23728;SDS011;12045;60.214;24.724;2023-02-15T05:23:40;10.63;;;4.37;;
23728;SDS011;12045;60.214;24.724;2023-02-15T05:26:10;7.77;;;4.10;;
23728;SDS011;12045;60.214;24.724;2023-02-15T05:28:57;8.70;;;3.63;;
23728;SDS011;12045;60.214;24.724;2023-02-15T05:31:25;9.97;;;3.80;;
23728;SDS011;12045;60.214;24.724;2023-02-15T05:33:53;9.53;;;4.53;;
23728;SDS011;12045;60.214;24.724;2023-02-15T05:36:20;13.33;;;5.53;;
23728;SDS011;12045;60.214;24.724;2023-02-15T05:38:48;14.63;;;4.97;;
23728;SDS011;12045;60.214;24.724;2023-02-15T05:41:15;15.87;;;4.93;;
23728;SDS011;12045;60.214;24.724;2023-02-15T05:43:42;20.97;;;6.23;;
23728;SDS011;12045;60.214;24.724;2023-02-15T05:46:10;17.30;;;6.10;;
23728;SDS011;12045;60.214;24.724;2023-02-15T05:48:38;12.70;;;5.50;;
23728;SDS011;12045;60.214;24.724;2023-02-15T05:51:07;15.40;;;5.93;;
23728;SDS011;12045;60.214;24.724;2023-02-15T05:53:38;16.77;;;6.20;;
23728;SDS011;12045;60.214;24.724;2023-02-15T05:56:06;12.47;;;5.87;;
23728;SDS011;12045;60.214;24.724;2023-02-15T05:58:36;16.50;;;6.47;;
23728;SDS011;12045;60.214;24.724;2023-02-15T06:01:15;12.73;;;5.87;;
23728;SDS011;12045;60.214;24.724;2023-02-15T06:03:46;12.33;;;5.90;;
23728;SDS011;12045;60.214;24.724;2023-02-15T06:06:13;18.40;;;6.37;;
23728;SDS011;12045;60.214;24.724;2023-02-15T06:08:41;15.40;;;5.67;;
23728;SDS011;12045;60.214;24.724;2023-02-15T06:11:19;18.87;;;6.30;;
23728;SDS011;12045;60.214;24.724;2023-02-15T06:13:47;16.17;;;6.53;;
23728;SDS011;12045;60.214;24.724;2023-02-15T06:16:19;21.13;;;7.63;;
23728;SDS011;12045;60.214;24.724;2023-02-15T06:26:46;15.20;;;6.60;;
23728;SDS011;12045;60.214;24.724;2023-02-15T06:29:14;14.97;;;7.20;;
23728;SDS011;12045;60.214;24.724;2023-02-15T06:31:43;14.67;;;6.53;;
23728;SDS011;12045;60.214;24.724;2023-02-15T06:39:43;15.57;;;6.90;;
23728;SDS011;12045;60.214;24.724;2023-02-15T06:42:13;13.77;;;6.27;;
23728;SDS011;12045;60.214;24.724;2023-02-15T06:44:41;15.63;;;6.20;;
23728;SDS011;12045;60.214;24.724;2023-02-15T06:47:09;14.67;;;6.17;;
23728;SDS011;12045;60.214;24.724;2023-02-15T06:49:37;16.10;;;6.20;;
23728;SDS011;12045;60.214;24.724;2023-02-15T06:55:05;16.83;;;6.47;;
23728;SDS011;12045;60.214;24.724;2023-02-15T06:57:33;14.97;;;5.93;;
23728;SDS011;12045;60.214;24.724;2023-02-15T07:00:02;13.20;;;5.67;;
23728;SDS011;12045;60.214;24.724;2023-02-15T07:02:31;15.07;;;6.07;;
23728;SDS011;12045;60.214;24.724;2023-02-15T07:05:00;11.57;;;6.03;;
23728;SDS011;12045;60.214;24.724;2023-02-15T07:07:38;17.43;;;6.10;;
23728;SDS011;12045;60.214;24.724;2023-02-15T07:10:26;19.30;;;5.70;;
23728;SDS011;12045;60.214;24.724;2023-02-15T07:13:03;13.00;;;5.40;;
23728;SDS011;12045;60.214;24.724;2023-02-15T07:16:09;10.07;;;5.17;;
23728;SDS011;12045;60.214;24.724;2023-02-15T07:21:56;16.03;;;5.50;;
23728;SDS011;12045;60.214;24.724;2023-02-15T07:24:23;10.93;;;5.53;;
23728;SDS011;12045;60.214;24.724;2023-02-15T07:26:53;12.17;;;5.33;;
23728;SDS011;12045;60.214;24.724;2023-02-15T07:29:37;11.70;;;5.27;;
23728;SDS011;12045;60.214;24.724;2023-02-15T07:32:07;17.00;;;5.50;;
23728;SDS011;12045;60.214;24.724;2023-02-15T07:34:35;14.27;;;5.93;;
23728;SDS011;12045;60.214;24.724;2023-02-15T07:37:02;14.23;;;5.70;;
23728;SDS011;12045;60.214;24.724;2023-02-15T07:39:51;12.13;;;5.87;;
23728;SDS011;12045;60.214;24.724;2023-02-15T07:42:34;21.07;;;7.40;;
23728;SDS011;12045;60.214;24.724;2023-02-15T07:53:53;20.27;;;8.17;;
23728;SDS011;12045;60.214;24.724;2023-02-15T07:56:36;17.90;;;8.57;;
23728;SDS011;12045;60.214;24.724;2023-02-15T07:59:03;16.50;;;7.60;;
23728;SDS011;12045;60.214;24.724;2023-02-15T08:01:34;18.53;;;8.13;;
23728;SDS011;12045;60.214;24.724;2023-02-15T08:04:06;17.17;;;7.37;;
23728;SDS011;12045;60.214;24.724;2023-02-15T08:06:40;16.73;;;8.07;;
23728;SDS011;12045;60.214;24.724;2023-02-15T08:09:08;19.37;;;7.97;;
23728;SDS011;12045;60.214;24.724;2023-02-15T08:11:39;17.73;;;8.40;;
23728;SDS011;12045;60.214;24.724;2023-02-15T08:14:14;16.40;;;7.47;;
23728;SDS011;12045;60.214;24.724;2023-02-15T08:16:52;17.00;;;6.77;;
23728;SDS011;12045;60.214;24.724;2023-02-15T08:19:29;14.60;;;6.87;;
23728;SDS011;12045;60.214;24.724;2023-02-15T08:24:48;15.57;;;6.63;;
23728;SDS011;12045;60.214;24.724;2023-02-15T08:27:28;24.90;;;7.13;;
23728;SDS011;12045;60.214;24.724;2023-02-15T08:33:48;12.83;;;6.67;;
23728;SDS011;12045;60.214;24.724;2023-02-15T08:39:30;18.80;;;6.93;;
23728;SDS011;12045;60.214;24.724;2023-02-15T08:42:02;13.93;;;6.30;;
23728;SDS011;12045;60.214;24.724;2023-02-15T08:44:30;13.37;;;6.73;;
23728;SDS011;12045;60.214;24.724;2023-02-15T08:46:59;13.17;;;6.50;;
23728;SDS011;12045;60.214;24.724;2023-02-15T08:49:30;12.13;;;6.43;;
23728;SDS011;12045;60.214;24.724;2023-02-15T08:51:58;14.87;;;6.33;;
23728;SDS011;12045;60.214;24.724;2023-02-15T08:54:26;6.23;;;3.30;;
23728;SDS011;12045;60.214;24.724;2023-02-15T08:56:55;12.40;;;5.73;;
23728;SDS011;12045;60.214;24.724;2023-02-15T08:59:26;12.30;;;5.90;;
23728;SDS011;12045;60.214;24.724;2023-02-15T09:01:55;11.17;;;6.30;;
23728;SDS011;12045;60.214;24.724;2023-02-15T09:04:24;14.87;;;6.17;;
23728;SDS011;12045;60.214;24.724;2023-02-15T09:06:53;12.30;;;6.50;;
23728;SDS011;12045;60.214;24.724;2023-02-15T09:09:22;12.27;;;6.40;;
23728;SDS011;12045;60.214;24.724;2023-02-15T09:11:51;17.70;;;7.07;;
23728;SDS011;12045;60.214;24.724;2023-02-15T09:14:25;11.50;;;5.77;;
23728;SDS011;12045;60.214;24.724;2023-02-15T09:16:53;17.87;;;6.30;;
23728;SDS011;12045;60.214;24.724;2023-02-15T09:19:22;15.70;;;5.47;;
23728;SDS011;12045;60.214;24.724;2023-02-15T09:21:52;20.83;;;5.87;;
23728;SDS011;12045;60.214;24.724;2023-02-15T09:24:20;19.07;;;4.10;;
23728;SDS011;12045;60.214;24.724;2023-02-15T09:26:48;11.00;;;3.63;;
23728;SDS011;12045;60.214;24.724;2023-02-15T09:29:16;10.90;;;4.23;;
23728;SDS011;12045;60.214;24.724;2023-02-15T09:31:47;9.83;;;3.90;;
23728;SDS011;12045;60.214;24.724;2023-02-15T09:34:19;22.60;;;4.03;;
23728;SDS011;12045;60.214;24.724;2023-02-15T09:36:48;25.13;;;3.80;;
23728;SDS011;12045;60.214;24.724;2023-02-15T09:39:21;38.97;;;3.50;;
23728;SDS011;12045;60.214;24.724;2023-02-15T09:53:52;44.00;;;5.10;;
23728;SDS011;12045;60.214;24.724;2023-02-15T09:56:39;79.23;;;5.10;;
23728;SDS011;12045;60.214;24.724;2023-02-15T09:59:32;74.07;;;5.50;;
23728;SDS011;12045;60.214;24.724;2023-02-15T10:02:24;48.47;;;4.27;;
23728;SDS011;12045;60.214;24.724;2023-02-15T10:11:07;42.13;;;4.73;;
23728;SDS011;12045;60.214;24.724;2023-02-15T10:14:56;24.13;;;3.10;;
23728;SDS011;12045;60.214;24.724;2023-02-15T10:20:37;18.70;;;4.50;;
23728;SDS011;12045;60.214;24.724;2023-02-15T10:33:50;22.43;;;3.73;;
23728;SDS011;12045;60.214;24.724;2023-02-15T10:39:27;20.27;;;4.70;;
23728;SDS011;12045;60.214;24.724;2023-02-15T10:42:17;19.93;;;4.90;;
23728;SDS011;12045;60.214;24.724;2023-02-15T10:58:14;24.07;;;5.43;;
23728;SDS011;12045;60.214;24.724;2023-02-15T11:06:41;22.23;;;6.10;;
23728;SDS011;12045;60.214;24.724;2023-02-15T11:09:24;74.27;;;8.17;;
23728;SDS011;12045;60.214;24.724;2023-02-15T11:12:05;36.03;;;6.70;;
23728;SDS011;12045;60.214;24.724;2023-02-15T11:14:52;21.03;;;6.23;;
23728;SDS011;12045;60.214;24.724;2023-02-15T11:21:06;18.43;;;6.17;;
23728;SDS011;12045;60.214;24.724;2023-02-15T11:23:48;12.03;;;4.83;;
23728;SDS011;12045;60.214;24.724;2023-02-15T11:26:34;21.03;;;4.27;;
23728;SDS011;12045;60.214;24.724;2023-02-15T11:29:10;13.88;;;3.70;;
23728;SDS011;12045;60.214;24.724;2023-02-15T11:31:43;44.90;;;4.83;;
23728;SDS011;12045;60.214;24.724;2023-02-15T11:34:24;17.87;;;4.43;;
23728;SDS011;12045;60.214;24.724;2023-02-15T11:37:35;31.23;;;4.93;;
23728;SDS011;12045;60.214;24.724;2023-02-15T11:40:16;14.37;;;4.20;;
23728;SDS011;12045;60.214;24.724;2023-02-15T11:43:13;23.17;;;4.47;;
23728;SDS011;12045;60.214;24.724;2023-02-15T11:49:26;14.77;;;4.87;;
23728;SDS011;12045;60.214;24.724;2023-02-15T11:52:02;21.47;;;5.00;;
23728;SDS011;12045;60.214;24.724;2023-02-15T11:54:41;32.37;;;5.37;;
23728;SDS011;12045;60.214;24.724;2023-02-15T11:57:21;44.67;;;5.47;;
23728;SDS011;12045;60.214;24.724;2023-02-15T11:59:58;51.38;;;5.13;;
23728;SDS011;12045;60.214;24.724;2023-02-15T12:02:31;59.13;;;5.60;;
23728;SDS011;12045;60.214;24.724;2023-02-15T12:05:09;40.10;;;4.90;;
23728;SDS011;12045;60.214;24.724;2023-02-15T12:14:04;10.67;;;3.90;;
23728;SDS011;12045;60.214;24.724;2023-02-15T12:16:44;23.57;;;3.43;;
23728;SDS011;12045;60.214;24.724;2023-02-15T12:21:51;8.90;;;2.40;;
23728;SDS011;12045;60.214;24.724;2023-02-15T12:27:01;15.73;;;2.50;;
23728;SDS011;12045;60.214;24.724;2023-02-15T12:29:31;13.63;;;2.13;;
23728;SDS011;12045;60.214;24.724;2023-02-15T12:32:09;28.30;;;2.30;;
23728;SDS011;12045;60.214;24.724;2023-02-15T12:34:45;19.57;;;1.80;;
23728;SDS011;12045;60.214;24.724;2023-02-15T12:37:24;6.97;;;2.13;;
23728;SDS011;12045;60.214;24.724;2023-02-15T12:39:56;44.23;;;3.20;;
23728;SDS011;12045;60.214;24.724;2023-02-15T12:42:40;35.67;;;3.13;;
23728;SDS011;12045;60.214;24.724;2023-02-15T12:47:53;9.83;;;1.90;;
23728;SDS011;12045;60.214;24.724;2023-02-15T12:50:46;5.20;;;1.60;;
23728;SDS011;12045;60.214;24.724;2023-02-15T12:58:24;3.67;;;1.40;;
23728;SDS011;12045;60.214;24.724;2023-02-15T13:01:28;19.70;;;2.28;;
23728;SDS011;12045;60.214;24.724;2023-02-15T13:03:58;13.20;;;1.80;;
23728;SDS011;12045;60.214;24.724;2023-02-15T13:06:33;29.90;;;2.90;;
23728;SDS011;12045;60.214;24.724;2023-02-15T13:09:14;8.40;;;2.37;;
23728;SDS011;12045;60.214;24.724;2023-02-15T13:11:45;14.47;;;1.87;;
23728;SDS011;12045;60.214;24.724;2023-02-15T13:14:21;12.33;;;2.40;;
23728;SDS011;12045;60.214;24.724;2023-02-15T13:16:56;42.37;;;3.43;;
23728;SDS011;12045;60.214;24.724;2023-02-15T13:22:15;28.23;;;3.17;;
23728;SDS011;12045;60.214;24.724;2023-02-15T13:24:48;11.63;;;2.40;;
23728;SDS011;12045;60.214;24.724;2023-02-15T13:27:24;7.07;;;1.97;;
23728;SDS011;12045;60.214;24.724;2023-02-15T13:29:59;8.37;;;1.90;;
23728;SDS011;12045;60.214;24.724;2023-02-15T13:32:37;6.83;;;1.77;;
23728;SDS011;12045;60.214;24.724;2023-02-15T13:35:13;2.80;;;1.70;;
23728;SDS011;12045;60.214;24.724;2023-02-15T13:38:02;10.40;;;2.20;;
23728;SDS011;12045;60.214;24.724;2023-02-15T13:41:01;5.27;;;2.27;;
23728;SDS011;12045;60.214;24.724;2023-02-15T13:43:40;13.07;;;2.23;;
23728;SDS011;12045;60.214;24.724;2023-02-15T13:49:11;7.63;;;2.17;;
23728;SDS011;12045;60.214;24.724;2023-02-15T13:54:53;6.50;;;2.27;;
23728;SDS011;12045;60.214;24.724;2023-02-15T13:57:57;4.73;;;1.90;;
23728;SDS011;12045;60.214;24.724;2023-02-15T14:00:49;5.97;;;2.60;;
23728;SDS011;12045;60.214;24.724;2023-02-15T14:03:31;4.23;;;2.20;;
23728;SDS011;12045;60.214;24.724;2023-02-15T14:06:35;11.83;;;2.50;;
23728;SDS011;12045;60.214;24.724;2023-02-15T14:12:13;9.47;;;2.57;;
23728;SDS011;12045;60.214;24.724;2023-02-15T14:21:17;3.73;;;2.37;;
23728;SDS011;12045;60.214;24.724;2023-02-15T14:26:45;0.90;;;0.90;;
23728;SDS011;12045;60.214;24.724;2023-02-15T14:35:00;0.63;;;0.63;;
23728;SDS011;12045;60.214;24.724;2023-02-15T14:43:24;4.57;;;1.77;;
23728;SDS011;12045;60.214;24.724;2023-02-15T14:46:21;3.13;;;2.10;;
23728;SDS011;12045;60.214;24.724;2023-02-15T14:48:58;3.63;;;2.10;;
23728;SDS011;12045;60.214;24.724;2023-02-15T14:59:36;5.53;;;2.87;;
23728;SDS011;12045;60.214;24.724;2023-02-15T15:04:34;8.13;;;3.43;;
23728;SDS011;12045;60.214;24.724;2023-02-15T15:07:21;6.97;;;3.10;;
23728;SDS011;12045;60.214;24.724;2023-02-15T15:10:00;6.97;;;3.37;;
23728;SDS011;12045;60.214;24.724;2023-02-15T15:12:53;5.83;;;3.37;;
23728;SDS011;12045;60.214;24.724;2023-02-15T15:18:09;8.40;;;4.20;;
23728;SDS011;12045;60.214;24.724;2023-02-15T15:20:56;9.83;;;4.03;;
23728;SDS011;12045;60.214;24.724;2023-02-15T15:23:38;8.00;;;4.50;;
23728;SDS011;12045;60.214;24.724;2023-02-15T15:26:26;10.27;;;4.13;;
23728;SDS011;12045;60.214;24.724;2023-02-15T15:28:57;8.93;;;4.30;;
23728;SDS011;12045;60.214;24.724;2023-02-15T15:45:19;14.23;;;5.00;;
23728;SDS011;12045;60.214;24.724;2023-02-15T15:53:54;14.37;;;6.03;;
23728;SDS011;12045;60.214;24.724;2023-02-15T15:56:29;18.63;;;5.73;;
23728;SDS011;12045;60.214;24.724;2023-02-15T15:59:00;16.53;;;6.00;;
23728;SDS011;12045;60.214;24.724;2023-02-15T16:01:31;18.60;;;5.90;;
23728;SDS011;12045;60.214;24.724;2023-02-15T16:04:05;16.27;;;6.03;;
23728;SDS011;12045;60.214;24.724;2023-02-15T16:06:37;17.43;;;6.60;;
23728;SDS011;12045;60.214;24.724;2023-02-15T16:11:46;19.27;;;6.67;;
23728;SDS011;12045;60.214;24.724;2023-02-15T16:14:16;17.93;;;7.37;;
23728;SDS011;12045;60.214;24.724;2023-02-15T16:16:58;19.97;;;7.67;;
23728;SDS011;12045;60.214;24.724;2023-02-15T16:19:29;25.23;;;7.53;;
23728;SDS011;12045;60.214;24.724;2023-02-15T16:22:00;25.23;;;8.93;;
23728;SDS011;12045;60.214;24.724;2023-02-15T16:24:36;22.93;;;8.27;;
23728;SDS011;12045;60.214;24.724;2023-02-15T16:33:11;21.83;;;8.63;;
23728;SDS011;12045;60.214;24.724;2023-02-15T16:35:41;20.03;;;8.80;;
23728;SDS011;12045;60.214;24.724;2023-02-15T16:41:19;20.77;;;8.97;;
23728;SDS011;12045;60.214;24.724;2023-02-15T16:43:50;21.37;;;9.37;;
23728;SDS011;12045;60.214;24.724;2023-02-15T16:46:30;20.10;;;9.10;;
23728;SDS011;12045;60.214;24.724;2023-02-15T16:49:02;14.37;;;7.03;;
23728;SDS011;12045;60.214;24.724;2023-02-15T16:51:42;17.53;;;7.57;;
23728;SDS011;12045;60.214;24.724;2023-02-15T16:54:18;15.33;;;7.80;;
23728;SDS011;12045;60.214;24.724;2023-02-15T16:56:47;23.10;;;8.10;;
23728;SDS011;12045;60.214;24.724;2023-02-15T16:59:28;15.37;;;7.57;;
23728;SDS011;12045;60.214;24.724;2023-02-15T17:01:57;20.07;;;8.07;;
23728;SDS011;12045;60.214;24.724;2023-02-15T17:04:26;19.97;;;8.07;;
23728;SDS011;12045;60.214;24.724;2023-02-15T17:09:54;19.90;;;7.93;;
23728;SDS011;12045;60.214;24.724;2023-02-15T17:15:25;27.20;;;7.70;;
23728;SDS011;12045;60.214;24.724;2023-02-15T17:17:59;15.40;;;7.17;;
23728;SDS011;12045;60.214;24.724;2023-02-15T17:20:32;19.90;;;8.03;;
23728;SDS011;12045;60.214;24.724;2023-02-15T17:23:03;17.80;;;7.43;;
23728;SDS011;12045;60.214;24.724;2023-02-15T17:25:35;17.50;;;8.27;;
23728;SDS011;12045;60.214;24.724;2023-02-15T17:28:05;18.50;;;7.87;;
23728;SDS011;12045;60.214;24.724;2023-02-15T17:30:44;15.43;;;7.17;;
23728;SDS011;12045;60.214;24.724;2023-02-15T17:33:20;18.77;;;7.90;;
23728;SDS011;12045;60.214;24.724;2023-02-15T17:38:36;13.80;;;7.37;;
23728;SDS011;12045;60.214;24.724;2023-02-15T17:41:06;21.37;;;7.67;;
23728;SDS011;12045;60.214;24.724;2023-02-15T17:43:35;15.27;;;7.30;;
23728;SDS011;12045;60.214;24.724;2023-02-15T17:46:03;16.57;;;7.37;;
23728;SDS011;12045;60.214;24.724;2023-02-15T17:48:32;17.83;;;7.83;;
23728;SDS011;12045;60.214;24.724;2023-02-15T17:51:03;13.27;;;7.30;;
23728;SDS011;12045;60.214;24.724;2023-02-15T17:53:32;13.43;;;6.80;;
23728;SDS011;12045;60.214;24.724;2023-02-15T17:56:00;12.70;;;6.97;;
23728;SDS011;12045;60.214;24.724;2023-02-15T17:58:36;14.87;;;6.70;;
23728;SDS011;12045;60.214;24.724;2023-02-15T18:01:06;14.07;;;7.00;;
23728;SDS011;12045;60.214;24.724;2023-02-15T18:03:59;14.97;;;6.80;;
23728;SDS011;12045;60.214;24.724;2023-02-15T18:06:49;16.20;;;7.10;;
23728;SDS011;12045;60.214;24.724;2023-02-15T18:09:35;13.67;;;6.57;;
23728;SDS011;12045;60.214;24.724;2023-02-15T18:12:23;15.33;;;6.73;;
23728;SDS011;12045;60.214;24.724;2023-02-15T18:14:51;18.37;;;7.50;;
23728;SDS011;12045;60.214;24.724;2023-02-15T18:17:30;17.97;;;7.87;;
23728;SDS011;12045;60.214;24.724;2023-02-15T18:20:05;15.63;;;7.38;;
23728;SDS011;12045;60.214;24.724;2023-02-15T18:22:44;16.43;;;7.07;;
23728;SDS011;12045;60.214;24.724;2023-02-15T18:25:16;11.77;;;5.77;;
23728;SDS011;12045;60.214;24.724;2023-02-15T18:27:44;16.00;;;6.50;;
23728;SDS011;12045;60.214;24.724;2023-02-15T18:30:19;9.10;;;4.80;;
23728;SDS011;12045;60.214;24.724;2023-02-15T18:32:50;14.83;;;6.53;;
23728;SDS011;12045;60.214;24.724;2023-02-15T18:35:20;13.43;;;6.60;;
23728;SDS011;12045;60.214;24.724;2023-02-15T18:37:50;16.90;;;7.40;;
23728;SDS011;12045;60.214;24.724;2023-02-15T18:40:20;5.77;;;3.27;;
23728;SDS011;12045;60.214;24.724;2023-02-15T18:42:50;16.42;;;6.55;;
23728;SDS011;12045;60.214;24.724;2023-02-15T18:45:22;14.03;;;6.40;;
23728;SDS011;12045;60.214;24.724;2023-02-15T18:48:01;11.73;;;5.47;;
23728;SDS011;12045;60.214;24.724;2023-02-15T18:50:34;10.60;;;5.63;;
23728;SDS011;12045;60.214;24.724;2023-02-15T18:53:03;12.50;;;5.90;;
23728;SDS011;12045;60.214;24.724;2023-02-15T18:55:33;12.23;;;6.33;;
23728;SDS011;12045;60.214;24.724;2023-02-15T18:58:01;11.33;;;6.53;;